x

Newport, Or (nwpo3) Weather Station

8:00am - Thu 28th Jul 2016 All times are PDT. -7 hours from GMT.

  • Wind
    21mph, 24mph gusts
  • Air Temp 56°f
  • Sea Pressure 1019.9mb
  • Newport, Or
  • Newport, Or

More Historic Weather Station data

Upgrade to MSW Pro to gain access to the past 30 days of data for over 8000 Wavebouys and Weather Stations around the globe.

Join Pro

Comparision Forecast

View Surf forecast
   
Thu 07/28 8:00am 21 24 mph 1019.9mb 56f
7:00am 17 21 mph 1019.8mb 56f
6:00am 22 25 mph 1019.7mb 55f
5:00am 20 22 mph 1019.7mb 55f
4:00am 15 18 mph 1019.8mb 53f
3:00am 15 16 mph 1019.6mb 53f
2:00am 14 16 mph 1019.5mb 53f
1:00am 15 18 mph 1019.9mb 54f
12:00am 17 21 mph 1020.2mb 55f
Wed 07/27 11:00pm 16 17 mph 1020.2mb 54f
10:00pm 15 17 mph 1019.7mb 54f
9:00pm 16 17 mph 1019.1mb 54f
8:00pm 24 26 mph 1019mb 54f
7:00pm 22 24 mph 1019mb 55f
6:00pm 22 24 mph 1019.6mb 55f
5:00pm 21 23 mph 1019.9mb 55f
4:00pm 23 25 mph 1019.9mb 57f
3:00pm 21 24 mph 1020.5mb 58f
2:00pm 23 26 mph 1020.6mb 58f
1:00pm 23 25 mph 1020.8mb 54f
12:00pm 21 24 mph 1020.5mb 56f
11:00am 21 23 mph 1020.5mb 57f
10:00am 18 21 mph 1021.3mb 57f
9:00am 16 20 mph 1021.3mb 54f
8:00am 10 11 mph 1020.5mb 55f
7:00am 6 7 mph 1020.2mb 54f
6:00am 11 13 mph 1019.7mb 55f
5:00am 17 20 mph 1019.8mb 55f
4:00am 15 16 mph 1019.8mb 54f
3:00am 17 21 mph 1019.5mb 54f
2:00am 10 13 mph 1019.5mb 55f
1:00am 21 23 mph 1019.7mb 55f
12:00am 21 23 mph 1019.9mb 55f
Tue 07/26 11:00pm 23 28 mph 1020mb 56f
10:00pm 26 32 mph 1020.1mb 57f
9:00pm 25 28 mph 1019.7mb 56f
8:00pm 24 26 mph 1019.5mb 56f
7:00pm 23 25 mph 1019.6mb 55f
6:00pm 21 24 mph 1020.2mb 56f
5:00pm 17 20 mph 1020.6mb 55f
4:00pm 17 20 mph 1020.8mb 54f
3:00pm 17 20 mph 1021mb 54f
2:00pm 21 24 mph 1021.1mb 55f
1:00pm 23 24 mph 1021.2mb 55f
12:00pm 18 22 mph 1021.4mb 55f
11:00am 17 21 mph 1021.9mb 56f
10:00am 15 16 mph 1021.8mb 58f
9:00am 14 16 mph 1022mb 57f
8:00am 18 21 mph 1022.2mb 58f
7:00am 10 11 mph 1022mb 56f
6:00am 13 14 mph 1021.5mb 57f
5:00am 14 15 mph 1021.2mb 57f
4:00am 14 15 mph 1021.1mb 57f
3:00am 8 9 mph 1021.3mb 53f
2:00am 10 13 mph 1021.1mb 54f
1:00am 9 10 mph 1021.1mb 54f
12:00am 9 10 mph 1021.1mb 55f
Mon 07/25 11:00pm 3 5 mph 1021.3mb 55f
10:00pm 1 3 mph 1021.3mb 56f
9:00pm 6 7 mph 1020.9mb 56f
8:00pm 8 10 mph 1020.6mb 55f
7:00pm 8 9 mph 1020.3mb 56f
6:00pm 6 7 mph 1020.3mb 56f
5:00pm 11 13 mph 1020.2mb 57f
4:00pm 11 13 mph 1020.3mb 57f
3:00pm 8 10 mph 1020.1mb 56f
2:00pm 7
mph
1020.5mb 56f
1:00pm 11 13 mph 1020.5mb 55f
12:00pm 10 13 mph 1020.4mb 56f
11:00am 10 14 mph 1020.3mb 55f
10:00am 8 10 mph 1020mb 55f
9:00am 8 9 mph 1020.1mb 55f
8:00am 6 7 mph 1019.9mb 56f
7:00am 6 7 mph 1019.8mb 55f
6:00am 5 6 mph 1019.4mb 54f
5:00am 7 8 mph 1019.2mb 54f
4:00am 3
mph
1018.8mb 54f
3:00am 3 5 mph 1018.7mb 54f
2:00am 3 5 mph 1018.7mb 55f
1:00am 3
mph
1018.6mb 56f
12:00am 3 5 mph 1018.5mb 55f
Sun 07/24 11:00pm 5 6 mph 1018.3mb 56f
10:00pm 2 3 mph 1018.6mb 56f
9:00pm 6 7 mph 1017.8mb 56f
8:00pm  -  2 mph 1017.7mb 55f
7:00pm 8 9 mph 1017.5mb 55f
6:00pm 18 23 mph 1017.3mb 56f
5:00pm 18 20 mph 1017.4mb 56f